KLAN

Capital Region International Airport

Airport
ICAO code
KLAN
IATA Code
LAN
Summary
ICAO Region
NAM
ICAO Territory
Location

Lansing, Michigan

Serving
Lansing
Elevation
861 ft
Coordinates
42° 46' 30" N , 84° 35' 22" W
KCC
Airport CFIT
Altimeter Temperature Error Correction
Airport LOS
Parallel Runway Operation
Airport WX
Cumulonimbus
Metar
KLAN 181153Z 00000KT 10SM CLR 16/14 A2991 RMK AO2 SLP126 70013 T01610144 10161 20122 53019 $

Description

Capital Region International Airport, formerly known as Lansing Capital City Airport, is a public airport located 3 nm northwest of downtown Lansing in DeWitt Township, Michigan, USA.

Runways

Designator Length Width Surface Rops
10L/28R 1098 23 ASP Yes/Yes
6/24 1524 37 PEM Yes/Yes
10R/28L 2210 46 ASP Yes/Yes

Airport map

Aerial View

SKYbrary Partners:

Safety knowledge contributed by: